Time;durP1;ratioP1;P1;durP2;ratioP2;P2;SDS_P1;SDS_P2;PMS_P1;PMS_P2;Temp;Humidity;BMP_temperature;BMP_pressure;BME280_temperature;BME280_humidity;BME280_pressure;Samples;Min_cycle;Max_cycle;Signal;HPM_P1;HPM_P2
2022/06/10 00:00:26;;;;;;;;;;;;;;;17.94;90.72;94410.72;5092956;28;1295;-51
2022/06/10 00:02:52;;;;;;;;;;;;;;;17.86;91.45;94419.13;5093404;28;1063;-51
2022/06/10 00:05:20;;;;;;;;;;;;;;;17.87;90.55;94412.69;5094940;28;1161;-51
2022/06/10 00:07:46;;;;;;;;;;;;;;;17.86;90.74;94418.31;5109180;28;1990;-51
2022/06/10 00:10:14;;;;;;;;;;;;;;;17.87;91.19;94420.81;5093454;28;1029;-51
2022/06/10 00:12:40;;;;;;;;;;;;;;;17.99;90.75;94412.75;5093259;28;1004;-50
2022/06/10 00:15:06;;;;;;;;;;;;;;;18.00;90.64;94410.88;5093200;28;1021;-50
2022/06/10 00:17:32;;;;;;;;;;;;;;;18.04;91.18;94414.78;5092752;28;1956;-51
2022/06/10 00:19:58;;;;;;;;;;;;;;;18.07;90.58;94415.16;5093183;28;1056;-51
2022/06/10 00:22:25;;;;;;;;;;;;;;;18.02;90.84;94411.47;5092979;28;1040;-51
2022/06/10 00:24:51;;;;;;;;;;;;;;;17.99;90.47;94417.34;5092886;28;1045;-51
2022/06/10 00:27:18;;;;;;;;;;;;;;;17.62;90.97;94425.38;5093114;28;1914;-51
2022/06/10 00:29:44;;;;;;;;;;;;;;;17.56;92.32;94422.50;5092712;28;1051;-51
2022/06/10 00:32:10;;;;;;;;;;;;;;;17.67;92.50;94428.25;5093255;28;962;-51
2022/06/10 00:34:36;;;;;;;;;;;;;;;17.79;92.48;94417.53;5092948;28;1004;-51
2022/06/10 00:37:03;;;;;;;;;;;;;;;17.78;92.67;94424.00;5096561;28;1057;-51
2022/06/10 00:39:29;;;;;;;;;;;;;;;17.77;91.95;94415.03;5095258;28;1034;-51
2022/06/10 00:41:55;;;;;;;;;;;;;;;17.68;92.15;94421.78;5096845;28;1025;-51
2022/06/10 00:44:30;;;;;;;;;;;;;;;17.65;92.92;94433.06;5096701;28;960;-51
2022/06/10 00:46:57;;;;;;;;;;;;;;;17.73;93.61;94430.06;5096652;28;1909;-51
2022/06/10 00:49:23;;;;;;;;;;;;;;;17.80;93.22;94428.13;5095971;28;1048;-49
2022/06/10 00:51:51;;;;;;;;;;;;;;;17.78;93.12;94424.00;5096510;28;1033;-51
2022/06/10 00:54:19;;;;;;;;;;;;;;;17.62;93.65;94426.19;5095548;28;967;-51
2022/06/10 00:56:58;;;;;;;;;;;;;;;17.52;94.00;94423.19;5096273;28;1044;-51
2022/06/10 00:59:48;;;;;;;;;;;;;;;17.67;93.31;94426.38;5095517;28;995;-51
2022/06/10 01:02:17;;;;;;;;;;;;;;;17.72;94.09;94426.53;5096157;28;1157;-51
2022/06/10 01:04:43;;;;;;;;;;;;;;;17.74;94.11;94421.72;5095947;28;1032;-50
2022/06/10 01:07:10;;;;;;;;;;;;;;;17.65;94.30;94423.06;5096175;28;1926;-51
2022/06/10 01:09:37;;;;;;;;;;;;;;;17.61;94.83;94419.16;5096131;28;954;-51
2022/06/10 01:12:22;;;;;;;;;;;;;;;17.58;95.21;94426.88;5096152;28;1048;-50
2022/06/10 01:14:57;;;;;;;;;;;;;;;17.66;95.06;94422.03;5095912;28;1871;-50
2022/06/10 01:17:33;;;;;;;;;;;;;;;17.61;95.11;94421.84;5096147;28;1064;-50
2022/06/10 01:20:18;;;;;;;;;;;;;;;17.61;95.78;94426.44;5095826;28;1080;-50
2022/06/10 01:22:50;;;;;;;;;;;;;;;17.57;95.80;94423.34;5095542;28;1015;-50
2022/06/10 01:25:16;;;;;;;;;;;;;;;17.48;96.24;94421.97;5095519;28;985;-49
2022/06/10 01:27:48;;;;;;;;;;;;;;;17.50;94.86;94418.00;5095593;28;1992;-50
2022/06/10 01:30:23;;;;;;;;;;;;;;;17.43;95.83;94416.41;5095944;28;998;-50
2022/06/10 01:32:54;;;;;;;;;;;;;;;17.47;96.55;94418.47;5095743;28;984;-50
2022/06/10 01:35:29;;;;;;;;;;;;;;;17.54;95.82;94411.09;5095576;28;1004;-50
2022/06/10 01:38:08;;;;;;;;;;;;;;;17.55;96.04;94411.94;5095696;28;1048;-50
2022/06/10 01:40:34;;;;;;;;;;;;;;;17.55;95.42;94411.94;5095026;28;984;-50
2022/06/10 01:43:18;;;;;;;;;;;;;;;17.49;95.57;94404.69;5095531;28;1101;-50
2022/06/10 01:45:48;;;;;;;;;;;;;;;17.53;96.39;94403.22;5095454;28;953;-50
2022/06/10 01:48:33;;;;;;;;;;;;;;;17.59;96.25;94402.34;5095488;28;1910;-50
2022/06/10 01:51:07;;;;;;;;;;;;;;;17.63;95.79;94419.75;5094692;28;1950;-50
2022/06/10 01:53:38;;;;;;;;;;;;;;;17.68;95.88;94411.81;5095339;28;1036;-50
2022/06/10 01:56:04;;;;;;;;;;;;;;;17.46;96.24;94405.16;5095363;28;1035;-50
2022/06/10 01:58:34;;;;;;;;;;;;;;;17.27;95.96;94413.22;5095254;28;1027;-50
2022/06/10 02:01:02;;;;;;;;;;;;;;;17.31;97.15;94411.72;5094699;28;1104;-50
2022/06/10 02:03:36;;;;;;;;;;;;;;;17.50;95.32;94414.47;5095247;28;1004;-50
2022/06/10 02:06:08;;;;;;;;;;;;;;;17.55;95.15;94417.34;5102505;28;1898;-50
2022/06/10 02:08:38;;;;;;;;;;;;;;;17.45;95.08;94422.41;5115427;28;1075;-50
2022/06/10 02:11:10;;;;;;;;;;;;;;;17.43;95.30;94424.50;5111674;28;996;-50
2022/06/10 02:13:41;;;;;;;;;;;;;;;17.35;95.82;94422.91;5094841;28;1079;-50
2022/06/10 02:16:10;;;;;;;;;;;;;;;17.42;96.29;94425.56;5094732;28;1131;-50
2022/06/10 02:18:49;;;;;;;;;;;;;;;17.43;96.77;94419.91;5094952;28;969;-50
2022/06/10 02:21:21;;;;;;;;;;;;;;;17.29;97.02;94427.31;5094546;28;1057;-50
2022/06/10 02:23:51;;;;;;;;;;;;;;;17.10;97.75;94417.50;5094616;28;1029;-50
2022/06/10 02:26:17;;;;;;;;;;;;;;;17.09;98.22;94421.25;5094429;28;1997;-50
2022/06/10 02:28:48;;;;;;;;;;;;;;;17.23;97.63;94425.50;5094880;28;970;-50
2022/06/10 02:31:27;;;;;;;;;;;;;;;17.34;97.11;94432.91;5094389;28;1073;-50
2022/06/10 02:33:54;;;;;;;;;;;;;;;17.39;97.16;94439.50;5094864;28;1036;-50
2022/06/10 02:36:20;;;;;;;;;;;;;;;17.22;97.47;94440.03;5094529;28;946;-50
2022/06/10 02:38:46;;;;;;;;;;;;;;;17.14;97.17;94440.31;5094361;28;957;-50
2022/06/10 02:41:30;;;;;;;;;;;;;;;17.12;98.00;94448.63;5094052;28;1047;-50
2022/06/10 02:44:00;;;;;;;;;;;;;;;17.18;98.12;94449.63;5094335;28;1106;-50
2022/06/10 02:46:30;;;;;;;;;;;;;;;17.27;97.46;94447.50;5093970;28;1921;-51
2022/06/10 02:49:15;;;;;;;;;;;;;;;17.37;97.09;94453.22;5094377;28;969;-51
2022/06/10 02:51:41;;;;;;;;;;;;;;;17.46;97.58;94451.91;5093469;28;972;-51
2022/06/10 02:54:19;;;;;;;;;;;;;;;17.52;96.74;94440.22;5094050;28;1107;-51
2022/06/10 02:56:44;;;;;;;;;;;;;;;17.59;95.91;94450.16;5093938;28;1039;-51
2022/06/10 03:02:14;;;;;;;;;;;;;;;17.62;97.54;94455.09;5086905;28;1281;-51
2022/06/10 03:04:46;;;;;;;;;;;;;;;17.62;97.53;94447.00;5093048;28;1027;-51
2022/06/10 03:07:12;;;;;;;;;;;;;;;17.53;96.96;94441.06;5093486;28;1906;-51
2022/06/10 03:09:41;;;;;;;;;;;;;;;17.46;96.75;94451.09;5093737;28;1028;-51
2022/06/10 03:12:37;;;;;;;;;;;;;;;17.47;96.95;94455.44;5092841;28;973;-51
2022/06/10 03:15:23;;;;;;;;;;;;;;;17.55;96.58;94456.00;5064225;28;1382;-51
2022/06/10 03:17:49;;;;;;;;;;;;;;;17.56;97.57;94462.22;5073686;28;1029;-51
2022/06/10 03:20:36;;;;;;;;;;;;;;;17.58;97.06;94459.31;5076925;28;2532;-51
2022/06/10 03:23:05;;;;;;;;;;;;;;;17.67;95.94;94456.09;5073034;28;958;-50
2022/06/10 03:25:34;;;;;;;;;;;;;;;17.66;96.27;94470.69;5093624;28;980;-50
2022/06/10 03:28:06;;;;;;;;;;;;;;;17.52;96.52;94461.84;5093542;28;1902;-50
2022/06/10 03:30:40;;;;;;;;;;;;;;;17.50;96.94;94463.13;5093576;28;1048;-50
2022/06/10 03:33:12;;;;;;;;;;;;;;;17.54;96.77;94458.91;5092999;28;1016;-50
2022/06/10 03:35:42;;;;;;;;;;;;;;;17.45;97.19;94471.88;5093646;28;1033;-50
2022/06/10 03:38:09;;;;;;;;;;;;;;;17.34;97.61;94470.72;5093340;28;1056;-50
2022/06/10 03:40:35;;;;;;;;;;;;;;;17.32;97.93;94469.28;5093645;28;1040;-50
2022/06/10 03:43:03;;;;;;;;;;;;;;;17.38;98.23;94473.81;5093395;28;1044;-50
2022/06/10 03:45:32;;;;;;;;;;;;;;;17.50;97.21;94480.16;5093099;28;1012;-50
2022/06/10 03:47:59;;;;;;;;;;;;;;;17.61;96.98;94469.69;5091795;28;1969;-50
2022/06/10 03:50:28;;;;;;;;;;;;;;;17.68;96.23;94476.69;5093443;28;1054;-51
2022/06/10 03:52:54;;;;;;;;;;;;;;;17.77;96.71;94479.91;5093151;28;1036;-51
2022/06/10 03:55:20;;;;;;;;;;;;;;;17.85;96.88;94476.13;5092778;28;1104;-50
2022/06/10 03:57:47;;;;;;;;;;;;;;;17.78;96.92;94472.66;5093122;28;988;-50
2022/06/10 04:00:15;;;;;;;;;;;;;;;17.68;97.74;94481.25;5093296;28;1115;-50
2022/06/10 04:02:41;;;;;;;;;;;;;;;17.75;97.47;94472.03;5092710;28;1095;-50
2022/06/10 04:05:08;;;;;;;;;;;;;;;17.83;97.00;94473.66;5093315;28;1023;-50
2022/06/10 04:07:34;;;;;;;;;;;;;;;17.92;96.96;94483.13;5072677;28;1913;-51
2022/06/10 04:10:00;;;;;;;;;;;;;;;17.98;96.78;94478.72;5075253;28;1024;-51
2022/06/10 04:12:27;;;;;;;;;;;;;;;18.09;95.01;94477.97;5077009;28;1032;-50
2022/06/10 04:14:53;;;;;;;;;;;;;;;18.10;95.57;94479.63;5090836;28;1033;-50
2022/06/10 04:17:19;;;;;;;;;;;;;;;18.12;95.45;94488.34;5097071;28;1040;-50
2022/06/10 04:19:45;;;;;;;;;;;;;;;18.17;95.91;94494.97;5097330;28;996;-51
2022/06/10 04:22:11;;;;;;;;;;;;;;;18.18;95.65;94485.81;5096922;28;1075;-50
2022/06/10 04:24:37;;;;;;;;;;;;;;;18.25;96.28;94489.25;5096594;28;963;-50
2022/06/10 04:27:03;;;;;;;;;;;;;;;18.32;95.72;94484.59;5096769;28;1905;-50
2022/06/10 04:29:30;;;;;;;;;;;;;;;18.33;95.84;94475.44;5096917;28;1023;-50
2022/06/10 04:31:56;;;;;;;;;;;;;;;18.35;94.51;94486.88;5096667;28;981;-51
2022/06/10 04:34:22;;;;;;;;;;;;;;;18.34;95.26;94493.31;5096681;28;982;-50
2022/06/10 04:36:48;;;;;;;;;;;;;;;18.28;94.79;94496.94;5096743;28;997;-50
2022/06/10 04:39:14;;;;;;;;;;;;;;;18.32;95.01;94498.94;5096731;28;1142;-52
2022/06/10 04:41:40;;;;;;;;;;;;;;;18.35;95.29;94497.69;5095975;28;1068;-52
2022/06/10 04:44:06;;;;;;;;;;;;;;;18.38;93.46;94494.50;5096441;28;2071;-51
2022/06/10 04:46:34;;;;;;;;;;;;;;;18.29;93.26;94493.19;5096337;28;1910;-51
2022/06/10 04:49:18;;;;;;;;;;;;;;;18.36;94.17;94491.22;5095097;28;2695;-51
2022/06/10 04:51:44;;;;;;;;;;;;;;;18.50;92.93;94500.84;5075746;28;1092;-51
2022/06/10 04:54:11;;;;;;;;;;;;;;;18.57;94.41;94502.63;5088014;28;984;-51
2022/06/10 04:56:38;;;;;;;;;;;;;;;18.70;93.47;94503.31;5096426;28;1020;-51
2022/06/10 04:59:04;;;;;;;;;;;;;;;18.69;93.84;94514.38;5096389;28;1189;-50
2022/06/10 05:01:30;;;;;;;;;;;;;;;18.70;93.22;94506.03;5096064;28;1234;-51
2022/06/10 05:03:56;;;;;;;;;;;;;;;18.67;92.90;94506.47;5096189;28;1044;-51
2022/06/10 05:06:22;;;;;;;;;;;;;;;18.68;93.65;94504.59;5106482;28;1918;-51
2022/06/10 05:08:49;;;;;;;;;;;;;;;18.74;92.78;94511.78;5116685;28;954;-51
2022/06/10 05:11:15;;;;;;;;;;;;;;;18.65;91.09;94510.47;5116541;28;1016;-51
2022/06/10 05:13:42;;;;;;;;;;;;;;;18.76;91.61;94511.56;5108601;28;1378;-51
2022/06/10 05:16:08;;;;;;;;;;;;;;;18.83;90.86;94507.75;5096370;28;1040;-51
2022/06/10 05:18:34;;;;;;;;;;;;;;;18.84;90.91;94517.53;5095665;28;1017;-51
2022/06/10 05:21:00;;;;;;;;;;;;;;;19.02;88.82;94511.25;5095411;28;966;-51
2022/06/10 05:23:26;;;;;;;;;;;;;;;19.01;89.96;94512.31;5095301;28;977;-51
2022/06/10 05:25:53;;;;;;;;;;;;;;;19.05;90.54;94510.81;5095767;28;1214;-51
2022/06/10 05:28:20;;;;;;;;;;;;;;;19.08;91.03;94517.63;5095534;28;1902;-51
2022/06/10 05:30:46;;;;;;;;;;;;;;;19.03;91.39;94514.81;5095915;28;1043;-51
2022/06/10 05:33:12;;;;;;;;;;;;;;;18.96;89.30;94516.78;5095286;28;1044;-51
2022/06/10 05:35:39;;;;;;;;;;;;;;;19.12;89.03;94518.81;5095664;28;965;-51
2022/06/10 05:38:06;;;;;;;;;;;;;;;19.28;89.34;94518.19;5095461;28;1091;-50
2022/06/10 05:40:32;;;;;;;;;;;;;;;19.37;89.03;94512.44;5095551;28;1052;-51
2022/06/10 05:42:59;;;;;;;;;;;;;;;19.60;87.28;94515.22;5095076;28;1091;-51
2022/06/10 05:45:26;;;;;;;;;;;;;;;19.79;85.90;94523.31;5095707;28;1025;-51
2022/06/10 05:47:55;;;;;;;;;;;;;;;20.05;85.69;94519.28;5095514;28;2285;-51
2022/06/10 05:50:24;;;;;;;;;;;;;;;20.41;83.93;94522.81;5095347;28;1081;-51
2022/06/10 05:52:50;;;;;;;;;;;;;;;20.39;83.25;94520.34;5095363;28;1001;-51
2022/06/10 05:55:17;;;;;;;;;;;;;;;20.41;82.48;94522.81;5094668;28;1029;-51
2022/06/10 05:57:43;;;;;;;;;;;;;;;20.57;82.60;94524.00;5095143;28;1044;-50
2022/06/10 06:00:13;;;;;;;;;;;;;;;20.41;82.77;94520.97;5095087;28;1129;-51
2022/06/10 06:02:39;;;;;;;;;;;;;;;20.37;84.18;94508.91;5095060;28;1040;-51
2022/06/10 06:05:07;;;;;;;;;;;;;;;20.86;82.66;94514.03;5094567;28;1021;-51
2022/06/10 06:07:33;;;;;;;;;;;;;;;21.19;81.40;94505.19;5092459;28;1999;-51
2022/06/10 06:09:59;;;;;;;;;;;;;;;21.45;77.94;94503.78;5095147;28;980;-51
2022/06/10 06:12:25;;;;;;;;;;;;;;;21.40;77.69;94514.53;5094849;28;1055;-51
2022/06/10 06:14:51;;;;;;;;;;;;;;;21.43;77.09;94514.03;5094899;28;972;-51
2022/06/10 06:17:19;;;;;;;;;;;;;;;21.31;77.81;94523.34;5094484;28;1036;-51
2022/06/10 06:19:45;;;;;;;;;;;;;;;21.08;76.01;94518.81;5094751;28;1020;-51
2022/06/10 06:22:11;;;;;;;;;;;;;;;21.44;77.08;94517.63;5094891;28;1015;-51
2022/06/10 06:24:37;;;;;;;;;;;;;;;21.85;73.37;94518.31;5094179;28;1091;-50
2022/06/10 06:27:05;;;;;;;;;;;;;;;21.89;73.89;94513.22;5093050;28;1934;-51
2022/06/10 06:29:31;;;;;;;;;;;;;;;21.36;76.17;94518.81;5094721;28;1215;-51
2022/06/10 06:31:57;;;;;;;;;;;;;;;21.71;75.41;94508.84;5094599;28;1043;-51
2022/06/10 06:34:24;;;;;;;;;;;;;;;21.91;73.25;94503.75;5093690;28;1028;-51
2022/06/10 06:36:51;;;;;;;;;;;;;;;22.18;73.31;94509.34;5094641;28;1040;-51
2022/06/10 06:39:18;;;;;;;;;;;;;;;21.78;75.18;94509.53;5094066;28;1202;-51
2022/06/10 06:41:44;;;;;;;;;;;;;;;21.45;75.66;94516.56;5094480;28;1056;-51
2022/06/10 06:44:10;;;;;;;;;;;;;;;21.40;76.02;94517.28;5094469;28;966;-51
2022/06/10 06:46:38;;;;;;;;;;;;;;;21.61;74.09;94501.34;5094330;28;1914;-51
2022/06/10 06:49:06;;;;;;;;;;;;;;;21.71;73.72;94511.56;5093924;28;1032;-51
2022/06/10 06:51:33;;;;;;;;;;;;;;;21.86;76.00;94517.28;5094033;28;969;-51
2022/06/10 06:53:59;;;;;;;;;;;;;;;22.39;71.77;94518.66;5093953;28;1209;-51
2022/06/10 06:56:26;;;;;;;;;;;;;;;22.80;69.82;94524.69;5093918;28;1016;-52
2022/06/10 06:58:52;;;;;;;;;;;;;;;23.05;69.15;94523.38;5093733;28;1126;-51
2022/06/10 07:01:18;;;;;;;;;;;;;;;22.65;68.96;94516.31;5093791;28;1657;-51
2022/06/10 07:03:44;;;;;;;;;;;;;;;22.85;69.98;94520.38;5094086;28;995;-51
2022/06/10 07:06:10;;;;;;;;;;;;;;;23.08;69.29;94514.66;5102741;28;1909;-51
2022/06/10 07:08:37;;;;;;;;;;;;;;;22.87;71.02;94518.22;5100054;28;1107;-51
2022/06/10 07:11:03;;;;;;;;;;;;;;;22.73;68.76;94521.31;5093718;28;1032;-51
2022/06/10 07:13:30;;;;;;;;;;;;;;;22.38;69.58;94522.44;5094061;28;1059;-51
2022/06/10 07:15:56;;;;;;;;;;;;;;;22.63;69.38;94517.63;5093772;28;1029;-51
2022/06/10 07:18:23;;;;;;;;;;;;;;;22.84;69.58;94503.19;5093600;28;1025;-52
2022/06/10 07:20:49;;;;;;;;;;;;;;;23.04;69.57;94508.09;5093589;28;1052;-51
2022/06/10 07:23:16;;;;;;;;;;;;;;;22.78;69.44;94515.09;5094009;28;969;-51
2022/06/10 07:25:42;;;;;;;;;;;;;;;22.76;70.21;94509.06;5093176;28;980;-51
2022/06/10 07:28:11;;;;;;;;;;;;;;;22.74;69.00;94509.31;5093284;28;1909;-50
2022/06/10 07:30:38;;;;;;;;;;;;;;;22.52;68.75;94513.91;5093282;28;1040;-51
2022/06/10 07:33:04;;;;;;;;;;;;;;;22.37;69.09;94509.09;5094119;28;938;-51
2022/06/10 07:35:30;;;;;;;;;;;;;;;22.75;69.92;94510.16;5093373;28;970;-51
2022/06/10 07:37:57;;;;;;;;;;;;;;;22.89;71.41;94495.06;5093082;28;1024;-51
2022/06/10 07:43:11;;;;;;;;;;;;;;;22.52;71.29;94505.75;5093649;28;936;-51
2022/06/10 07:45:37;;;;;;;;;;;;;;;22.70;69.37;94515.53;5092954;28;950;-51
2022/06/10 07:48:04;;;;;;;;;;;;;;;23.17;68.41;94512.34;5093206;28;1984;-52
2022/06/10 07:50:30;;;;;;;;;;;;;;;23.35;68.19;94513.88;5093045;28;1119;-51
2022/06/10 07:52:56;;;;;;;;;;;;;;;23.30;67.74;94516.56;5093649;28;1060;-51
2022/06/10 07:55:22;;;;;;;;;;;;;;;23.18;67.98;94520.25;5093164;28;962;-52
2022/06/10 07:57:49;;;;;;;;;;;;;;;23.10;67.30;94523.41;5093302;28;1113;-51
2022/06/10 08:00:15;;;;;;;;;;;;;;;23.16;67.04;94522.44;5092981;28;1199;-52
2022/06/10 08:02:41;;;;;;;;;;;;;;;23.16;66.55;94522.44;5093077;28;965;-51
2022/06/10 08:05:10;;;;;;;;;;;;;;;23.31;67.07;94527.19;5093387;28;1044;-52
2022/06/10 08:07:39;;;;;;;;;;;;;;;23.30;67.88;94533.75;5076104;28;1910;-52
2022/06/10 08:10:07;;;;;;;;;;;;;;;23.10;65.27;94531.59;5093461;28;960;-51
2022/06/10 08:12:33;;;;;;;;;;;;;;;22.93;66.42;94534.34;5093214;28;964;-51
2022/06/10 08:14:59;;;;;;;;;;;;;;;22.75;68.11;94532.78;5093395;28;982;-51
2022/06/10 08:17:25;;;;;;;;;;;;;;;22.73;69.64;94532.22;5092444;28;1040;-51
2022/06/10 08:19:51;;;;;;;;;;;;;;;22.75;68.82;94542.88;5093053;28;1864;-51
2022/06/10 08:22:35;;;;;;;;;;;;;;;23.01;66.76;94530.38;5093136;28;1079;-51
2022/06/10 08:25:04;;;;;;;;;;;;;;;23.22;65.47;94533.38;5093087;28;1027;-51
2022/06/10 08:27:30;;;;;;;;;;;;;;;23.47;66.05;94538.31;5092656;28;1905;-51
2022/06/10 08:29:56;;;;;;;;;;;;;;;24.32;64.90;94541.25;5093079;28;1037;-51
2022/06/10 08:32:23;;;;;;;;;;;;;;;24.41;64.25;94542.41;5092668;28;964;-52
2022/06/10 08:34:49;;;;;;;;;;;;;;;24.19;59.92;94538.97;5093309;28;1032;-51
2022/06/10 08:37:16;;;;;;;;;;;;;;;24.11;63.93;94538.38;5093057;28;1059;-52
2022/06/10 08:39:42;;;;;;;;;;;;;;;24.08;62.65;94541.63;5092666;28;1036;-52
2022/06/10 08:42:08;;;;;;;;;;;;;;;24.41;62.71;94530.66;5092823;28;1143;-52
2022/06/10 08:44:49;;;;;;;;;;;;;;;24.84;61.46;94543.25;5093186;28;1067;-50
2022/06/10 08:47:27;;;;;;;;;;;;;;;24.76;61.20;94535.56;5092717;28;1909;-52
2022/06/10 08:50:18;;;;;;;;;;;;;;;24.11;59.60;94530.19;5092939;28;973;-52
2022/06/10 08:53:05;;;;;;;;;;;;;;;23.54;64.41;94537.00;5092949;28;992;-52
2022/06/10 08:55:50;;;;;;;;;;;;;;;23.56;64.02;94537.59;5092854;28;1059;-52
2022/06/10 08:58:29;;;;;;;;;;;;;;;23.46;63.67;94521.09;5096261;28;1040;-52
2022/06/10 09:00:58;;;;;;;;;;;;;;;23.29;66.35;94520.38;5096474;28;2145;-51
2022/06/10 09:03:34;;;;;;;;;;;;;;;22.92;63.71;94527.28;5096115;28;969;-51
2022/06/10 09:06:02;;;;;;;;;;;;;;;23.04;64.67;94524.44;5104025;28;1144;-51
2022/06/10 09:08:32;;;;;;;;;;;;;;;23.10;62.98;94531.59;5107268;27;1906;-51
2022/06/10 09:11:09;;;;;;;;;;;;;;;22.95;64.58;94524.03;5096660;28;1055;-51
2022/06/10 09:13:39;;;;;;;;;;;;;;;22.90;62.77;94531.34;5095930;28;1165;-51
2022/06/10 09:16:14;;;;;;;;;;;;;;;23.02;62.59;94528.47;5096237;28;1047;-52
2022/06/10 09:18:47;;;;;;;;;;;;;;;23.26;65.59;94529.03;5095761;28;1064;-51
2022/06/10 09:21:20;;;;;;;;;;;;;;;23.49;65.07;94536.97;5096309;28;1015;-51
2022/06/10 09:23:46;;;;;;;;;;;;;;;23.54;64.52;94534.28;5094883;28;1193;-51
2022/06/10 09:26:24;;;;;;;;;;;;;;;23.58;63.53;94519.03;5095475;28;1987;-51
2022/06/10 09:28:50;;;;;;;;;;;;;;;23.46;65.11;94526.53;5095699;28;1040;-51
2022/06/10 09:31:21;;;;;;;;;;;;;;;23.64;65.89;94528.09;5096000;28;988;-52
2022/06/10 09:33:47;;;;;;;;;;;;;;;24.05;62.60;94528.47;5095903;28;1218;-52
2022/06/10 09:36:16;;;;;;;;;;;;;;;24.11;63.10;94530.19;5095312;28;1048;-51
2022/06/10 09:38:42;;;;;;;;;;;;;;;24.16;63.16;94527.47;5095365;28;1055;-52
2022/06/10 09:41:27;;;;;;;;;;;;;;;24.36;61.72;94523.28;5095559;28;1017;-52
2022/06/10 09:44:04;;;;;;;;;;;;;;;24.60;64.41;94528.34;5095386;28;1024;-51
2022/06/10 09:46:31;;;;;;;;;;;;;;;24.65;62.37;94525.66;5095143;28;1993;-51
2022/06/10 09:48:57;;;;;;;;;;;;;;;24.52;62.45;94518.75;5095331;28;1024;-51
2022/06/10 09:51:42;;;;;;;;;;;;;;;24.47;62.29;94524.16;5095385;28;973;-50
2022/06/10 09:54:16;;;;;;;;;;;;;;;24.47;62.35;94518.69;5095283;28;1015;-51
2022/06/10 09:56:45;;;;;;;;;;;;;;;24.22;60.98;94520.16;5095014;28;1053;-50
2022/06/10 09:59:20;;;;;;;;;;;;;;;24.26;58.54;94524.00;5095180;28;966;-51
2022/06/10 10:01:56;;;;;;;;;;;;;;;24.12;61.07;94520.09;5094827;28;1077;-51
2022/06/10 10:04:28;;;;;;;;;;;;;;;24.01;61.89;94521.91;5095166;28;1059;-51
2022/06/10 10:06:54;;;;;;;;;;;;;;;24.45;62.70;94515.38;5094692;28;1999;-51
2022/06/10 10:09:39;;;;;;;;;;;;;;;24.91;60.78;94511.03;5094934;28;1028;-51
2022/06/10 10:12:08;;;;;;;;;;;;;;;25.13;60.22;94521.78;5095020;28;1056;-51
2022/06/10 10:14:55;;;;;;;;;;;;;;;25.06;60.30;94523.97;5094628;28;1103;-51
2022/06/10 10:17:46;;;;;;;;;;;;;;;24.89;62.84;94526.03;5095123;28;994;-51
2022/06/10 10:20:31;;;;;;;;;;;;;;;24.77;62.40;94511.78;5095064;28;1062;-51
2022/06/10 10:23:18;;;;;;;;;;;;;;;24.56;62.71;94511.66;5094607;28;1032;-51
2022/06/10 10:25:46;;;;;;;;;;;;;;;24.26;63.03;94513.06;5093285;28;1115;-51
2022/06/10 10:28:15;;;;;;;;;;;;;;;24.02;64.46;94500.88;5094541;28;1905;-51
2022/06/10 10:30:44;;;;;;;;;;;;;;;23.84;64.35;94504.84;5094620;28;1044;-51
2022/06/10 10:33:12;;;;;;;;;;;;;;;23.83;65.07;94495.00;5094582;28;982;-51
2022/06/10 10:35:39;;;;;;;;;;;;;;;23.82;65.73;94504.28;5094119;28;1024;-51
2022/06/10 10:38:09;;;;;;;;;;;;;;;23.80;64.71;94498.25;5094330;28;1087;-51
2022/06/10 10:40:40;;;;;;;;;;;;;;;23.64;64.94;94500.81;5094628;28;1139;-51
2022/06/10 10:43:18;;;;;;;;;;;;;;;23.56;66.18;94506.72;5094239;28;1032;-51
2022/06/10 10:45:52;;;;;;;;;;;;;;;23.54;64.59;94497.97;5094167;28;1048;-51
2022/06/10 10:48:23;;;;;;;;;;;;;;;23.47;68.18;94494.66;5094043;28;1989;-51
2022/06/10 10:50:54;;;;;;;;;;;;;;;23.37;66.17;94492.63;5094522;28;988;-51
2022/06/10 10:53:20;;;;;;;;;;;;;;;23.18;68.06;94500.34;5094043;28;1052;-51
2022/06/10 10:55:49;;;;;;;;;;;;;;;23.09;68.36;94502.72;5092608;28;999;-51
2022/06/10 10:58:20;;;;;;;;;;;;;;;22.94;70.75;94497.03;5093984;28;976;-51
2022/06/10 11:00:54;;;;;;;;;;;;;;;22.81;71.57;94492.78;5093730;28;1081;-51
2022/06/10 11:03:26;;;;;;;;;;;;;;;22.73;71.62;94495.97;5094062;28;966;-51
2022/06/10 11:05:52;;;;;;;;;;;;;;;22.60;71.62;94492.53;5093649;28;1039;-51
2022/06/10 11:08:23;;;;;;;;;;;;;;;22.45;74.35;94499.69;5093911;28;1913;-51
2022/06/10 11:10:50;;;;;;;;;;;;;;;22.18;77.83;94484.03;5093992;28;1020;-50
2022/06/10 11:13:18;;;;;;;;;;;;;;;21.95;80.46;94491.28;5094002;28;1044;-50
2022/06/10 11:15:44;;;;;;;;;;;;;;;21.88;79.47;94493.34;5093890;28;1018;-50
2022/06/10 11:18:13;;;;;;;;;;;;;;;21.89;79.88;94497.72;5094064;28;1044;-51
2022/06/10 11:20:39;;;;;;;;;;;;;;;21.83;78.88;94504.16;5093020;28;941;-51
2022/06/10 11:23:26;;;;;;;;;;;;;;;21.66;81.57;94501.41;5094006;28;980;-52
2022/06/10 11:26:09;;;;;;;;;;;;;;;21.76;79.79;94507.03;5093256;28;1036;-51
2022/06/10 11:28:37;;;;;;;;;;;;;;;21.81;79.97;94500.84;5093576;28;1902;-50
2022/06/10 11:31:15;;;;;;;;;;;;;;;21.92;78.75;94499.13;5093410;28;1024;-51
2022/06/10 11:33:43;;;;;;;;;;;;;;;22.09;78.04;94497.22;5093432;28;1047;-51
2022/06/10 11:36:12;;;;;;;;;;;;;;;22.16;78.52;94499.78;5093219;28;1016;-51
2022/06/10 11:38:47;;;;;;;;;;;;;;;22.12;78.03;94491.28;5093685;28;984;-51
2022/06/10 11:41:21;;;;;;;;;;;;;;;22.12;77.94;94495.88;5093732;28;1052;-51
2022/06/10 11:43:50;;;;;;;;;;;;;;;22.01;80.05;94490.28;5092386;28;1071;-51
2022/06/10 11:46:25;;;;;;;;;;;;;;;22.15;79.32;94492.69;5093075;28;1198;-51
2022/06/10 11:49:09;;;;;;;;;;;;;;;22.30;79.27;94497.56;5093373;28;969;-51
2022/06/10 11:51:41;;;;;;;;;;;;;;;22.36;79.25;94497.38;5093525;28;953;-51
2022/06/10 11:54:07;;;;;;;;;;;;;;;22.39;80.10;94499.59;5092334;28;1041;-51
2022/06/10 11:59:45;;;;;;;;;;;;;;;22.45;78.21;94496.97;5093365;28;1048;-51
2022/06/10 12:02:23;;;;;;;;;;;;;;;22.51;77.04;94495.94;5093449;28;995;-51
2022/06/10 12:04:56;;;;;;;;;;;;;;;22.57;78.91;94490.28;5093093;28;1020;-51
2022/06/10 12:07:25;;;;;;;;;;;;;;;22.67;78.24;94486.91;5112306;28;1914;-51
2022/06/10 12:09:54;;;;;;;;;;;;;;;22.79;77.65;94486.78;5113382;28;960;-51
2022/06/10 12:12:23;;;;;;;;;;;;;;;22.91;75.18;94489.38;5113474;28;1143;-51
2022/06/10 12:14:54;;;;;;;;;;;;;;;22.96;75.18;94484.78;5113457;28;1007;-51
2022/06/10 12:17:29;;;;;;;;;;;;;;;23.05;74.44;94484.38;5093145;28;1123;-51
2022/06/10 12:20:04;;;;;;;;;;;;;;;23.37;73.80;94484.44;5092998;28;1060;-51
2022/06/10 12:22:32;;;;;;;;;;;;;;;23.77;74.80;94475.84;5093019;28;1023;-51
2022/06/10 12:24:58;;;;;;;;;;;;;;;24.09;75.95;94480.47;5092629;28;1190;-51
2022/06/10 12:27:30;;;;;;;;;;;;;;;24.35;72.90;94481.44;5093090;28;2027;-51
2022/06/10 12:30:09;;;;;;;;;;;;;;;24.28;70.68;94478.16;5092685;28;1091;-51
2022/06/10 12:32:35;;;;;;;;;;;;;;;24.24;72.77;94468.81;5096107;28;1039;-51
2022/06/10 12:35:26;;;;;;;;;;;;;;;24.32;71.27;94468.34;5096410;28;1187;-51
2022/06/10 12:37:58;;;;;;;;;;;;;;;24.42;70.97;94461.28;5087259;28;1859;-51
2022/06/10 12:40:25;;;;;;;;;;;;;;;24.49;70.17;94459.13;5096537;28;1145;-52
2022/06/10 12:42:55;;;;;;;;;;;;;;;24.58;70.19;94460.31;5096765;28;1458;-55
2022/06/10 12:45:21;;;;;;;;;;;;;;;24.49;67.84;94457.25;5096062;28;1194;-51
2022/06/10 12:47:47;;;;;;;;;;;;;;;24.23;69.47;94463.63;5096532;28;1911;-52
2022/06/10 12:50:19;;;;;;;;;;;;;;;23.60;69.49;94461.50;5096600;28;1020;-51
2022/06/10 12:52:57;;;;;;;;;;;;;;;23.23;68.66;94455.94;5096523;28;1110;-51
2022/06/10 12:55:46;;;;;;;;;;;;;;;23.09;69.75;94459.09;5095822;28;1047;-51
2022/06/10 12:58:49;;;;;;;;;;;;;;;23.23;68.81;94445.03;5086007;28;1797;-51
2022/06/10 13:01:36;;;;;;;;;;;;;;;23.19;70.56;94447.47;5001354;28;2606;-52
2022/06/10 13:04:05;;;;;;;;;;;;;;;23.10;68.96;94458.00;5068407;28;1441;-52
2022/06/10 13:06:34;;;;;;;;;;;;;;;23.09;70.56;94463.72;5099136;28;1937;-52
2022/06/10 13:09:06;;;;;;;;;;;;;;;23.07;69.07;94463.13;5116871;28;1038;-52
2022/06/10 13:11:37;;;;;;;;;;;;;;;22.99;68.65;94458.91;5112274;28;1111;-52
2022/06/10 13:14:09;;;;;;;;;;;;;;;22.81;69.11;94463.63;5094932;28;1452;-52
2022/06/10 13:16:47;;;;;;;;;;;;;;;22.68;67.24;94461.28;5095664;28;1028;-52
2022/06/10 13:19:25;;;;;;;;;;;;;;;22.68;68.98;94458.56;5096259;28;995;-52
2022/06/10 13:21:51;;;;;;;;;;;;;;;22.56;70.72;94460.59;5095843;28;1028;-51
2022/06/10 13:24:19;;;;;;;;;;;;;;;22.51;71.38;94469.53;5095741;28;1205;-51